sensor_id;sensor_type;location;lat;lon;timestamp;P1;durP1;ratioP1;P2;durP2;ratioP2
35364;SDS011;21464;48.112;11.530;2022-09-16T00:00:08;6.38;;;5.10;;
35364;SDS011;21464;48.112;11.530;2022-09-16T00:02:35;6.45;;;5.20;;
35364;SDS011;21464;48.112;11.530;2022-09-16T00:05:01;6.75;;;5.03;;
35364;SDS011;21464;48.112;11.530;2022-09-16T00:07:27;7.38;;;6.68;;
35364;SDS011;21464;48.112;11.530;2022-09-16T00:09:53;7.47;;;6.70;;
35364;SDS011;21464;48.112;11.530;2022-09-16T00:12:19;7.57;;;6.43;;
35364;SDS011;21464;48.112;11.530;2022-09-16T00:14:45;5.88;;;5.22;;
35364;SDS011;21464;48.112;11.530;2022-09-16T00:17:11;6.22;;;5.60;;
35364;SDS011;21464;48.112;11.530;2022-09-16T00:19:37;6.15;;;5.57;;
35364;SDS011;21464;48.112;11.530;2022-09-16T00:22:03;5.72;;;5.22;;
35364;SDS011;21464;48.112;11.530;2022-09-16T00:24:30;6.93;;;5.32;;
35364;SDS011;21464;48.112;11.530;2022-09-16T00:26:55;8.70;;;5.88;;
35364;SDS011;21464;48.112;11.530;2022-09-16T00:29:21;7.60;;;6.07;;
35364;SDS011;21464;48.112;11.530;2022-09-16T00:31:47;8.45;;;6.30;;
35364;SDS011;21464;48.112;11.530;2022-09-16T00:34:13;8.05;;;6.95;;
35364;SDS011;21464;48.112;11.530;2022-09-16T00:36:40;7.15;;;6.45;;
35364;SDS011;21464;48.112;11.530;2022-09-16T00:39:06;9.13;;;6.63;;
35364;SDS011;21464;48.112;11.530;2022-09-16T00:41:32;8.60;;;6.97;;
35364;SDS011;21464;48.112;11.530;2022-09-16T00:43:59;7.93;;;6.03;;
35364;SDS011;21464;48.112;11.530;2022-09-16T00:49:01;6.18;;;5.57;;
35364;SDS011;21464;48.112;11.530;2022-09-16T00:51:27;6.30;;;5.70;;
35364;SDS011;21464;48.112;11.530;2022-09-16T00:53:54;5.63;;;5.22;;
35364;SDS011;21464;48.112;11.530;2022-09-16T00:56:22;5.60;;;5.07;;
35364;SDS011;21464;48.112;11.530;2022-09-16T00:58:51;5.30;;;4.80;;
35364;SDS011;21464;48.112;11.530;2022-09-16T01:01:20;5.75;;;5.25;;
35364;SDS011;21464;48.112;11.530;2022-09-16T01:03:50;5.90;;;5.40;;
35364;SDS011;21464;48.112;11.530;2022-09-16T01:06:17;5.32;;;4.78;;
35364;SDS011;21464;48.112;11.530;2022-09-16T01:08:43;5.60;;;5.00;;
35364;SDS011;21464;48.112;11.530;2022-09-16T01:11:09;5.65;;;5.15;;
35364;SDS011;21464;48.112;11.530;2022-09-16T01:13:35;5.65;;;5.07;;
35364;SDS011;21464;48.112;11.530;2022-09-16T01:16:05;6.57;;;5.32;;
35364;SDS011;21464;48.112;11.530;2022-09-16T01:23:45;5.53;;;5.03;;
35364;SDS011;21464;48.112;11.530;2022-09-16T01:34:24;6.18;;;5.60;;
35364;SDS011;21464;48.112;11.530;2022-09-16T01:50:01;6.03;;;5.40;;
35364;SDS011;21464;48.112;11.530;2022-09-16T01:52:59;5.18;;;4.68;;
35364;SDS011;21464;48.112;11.530;2022-09-16T01:55:21;5.85;;;5.25;;
35364;SDS011;21464;48.112;11.530;2022-09-16T01:57:54;5.75;;;4.95;;
35364;SDS011;21464;48.112;11.530;2022-09-16T02:00:22;5.50;;;5.10;;
35364;SDS011;21464;48.112;11.530;2022-09-16T02:03:04;5.78;;;5.22;;
35364;SDS011;21464;48.112;11.530;2022-09-16T02:05:33;5.32;;;4.80;;
35364;SDS011;21464;48.112;11.530;2022-09-16T02:10:54;7.38;;;5.10;;
35364;SDS011;21464;48.112;11.530;2022-09-16T02:13:23;5.93;;;5.32;;
35364;SDS011;21464;48.112;11.530;2022-09-16T02:15:50;6.13;;;4.65;;
35364;SDS011;21464;48.112;11.530;2022-09-16T02:18:18;5.22;;;4.78;;
35364;SDS011;21464;48.112;11.530;2022-09-16T02:20:45;5.63;;;4.93;;
35364;SDS011;21464;48.112;11.530;2022-09-16T02:23:22;5.43;;;4.82;;
35364;SDS011;21464;48.112;11.530;2022-09-16T02:25:48;5.13;;;4.72;;
35364;SDS011;21464;48.112;11.530;2022-09-16T02:28:17;6.65;;;5.28;;
35364;SDS011;21464;48.112;11.530;2022-09-16T02:30:45;6.82;;;4.93;;
35364;SDS011;21464;48.112;11.530;2022-09-16T02:33:12;5.80;;;5.28;;
35364;SDS011;21464;48.112;11.530;2022-09-16T02:35:39;7.32;;;6.40;;
35364;SDS011;21464;48.112;11.530;2022-09-16T02:38:10;7.20;;;6.50;;
35364;SDS011;21464;48.112;11.530;2022-09-16T02:40:41;5.38;;;4.88;;
35364;SDS011;21464;48.112;11.530;2022-09-16T02:43:09;5.75;;;5.25;;
35364;SDS011;21464;48.112;11.530;2022-09-16T02:45:38;5.63;;;5.13;;
35364;SDS011;21464;48.112;11.530;2022-09-16T02:53:54;5.75;;;5.25;;
35364;SDS011;21464;48.112;11.530;2022-09-16T02:58:47;6.68;;;5.60;;
35364;SDS011;21464;48.112;11.530;2022-09-16T03:01:13;6.00;;;5.35;;
35364;SDS011;21464;48.112;11.530;2022-09-16T03:03:40;5.80;;;5.20;;
35364;SDS011;21464;48.112;11.530;2022-09-16T03:08:32;5.22;;;4.80;;
35364;SDS011;21464;48.112;11.530;2022-09-16T03:11:00;5.35;;;4.95;;
35364;SDS011;21464;48.112;11.530;2022-09-16T03:13:34;6.93;;;5.32;;
35364;SDS011;21464;48.112;11.530;2022-09-16T03:21:24;6.38;;;5.78;;
35364;SDS011;21464;48.112;11.530;2022-09-16T03:24:02;6.50;;;5.90;;
35364;SDS011;21464;48.112;11.530;2022-09-16T03:26:46;6.28;;;5.70;;
35364;SDS011;21464;48.112;11.530;2022-09-16T03:34:44;7.18;;;5.70;;
35364;SDS011;21464;48.112;11.530;2022-09-16T03:37:12;7.28;;;6.10;;
35364;SDS011;21464;48.112;11.530;2022-09-16T03:39:39;7.32;;;6.22;;
35364;SDS011;21464;48.112;11.530;2022-09-16T03:42:06;6.70;;;5.88;;
35364;SDS011;21464;48.112;11.530;2022-09-16T03:44:38;6.35;;;5.78;;
35364;SDS011;21464;48.112;11.530;2022-09-16T03:47:05;6.28;;;5.78;;
35364;SDS011;21464;48.112;11.530;2022-09-16T03:49:31;6.30;;;5.70;;
35364;SDS011;21464;48.112;11.530;2022-09-16T03:51:57;6.47;;;5.88;;
35364;SDS011;21464;48.112;11.530;2022-09-16T03:54:23;7.00;;;6.30;;
35364;SDS011;21464;48.112;11.530;2022-09-16T03:56:49;7.80;;;6.18;;
35364;SDS011;21464;48.112;11.530;2022-09-16T03:59:15;7.13;;;6.30;;
35364;SDS011;21464;48.112;11.530;2022-09-16T04:01:42;6.60;;;6.03;;
35364;SDS011;21464;48.112;11.530;2022-09-16T04:04:08;7.57;;;5.97;;
35364;SDS011;21464;48.112;11.530;2022-09-16T04:06:34;6.65;;;6.05;;
35364;SDS011;21464;48.112;11.530;2022-09-16T04:09:03;8.52;;;6.07;;
35364;SDS011;21464;48.112;11.530;2022-09-16T04:11:30;8.80;;;6.25;;
35364;SDS011;21464;48.112;11.530;2022-09-16T04:13:57;7.22;;;6.40;;
35364;SDS011;21464;48.112;11.530;2022-09-16T04:16:23;7.38;;;6.60;;
35364;SDS011;21464;48.112;11.530;2022-09-16T04:18:49;8.90;;;6.78;;
35364;SDS011;21464;48.112;11.530;2022-09-16T04:21:15;7.57;;;6.88;;
35364;SDS011;21464;48.112;11.530;2022-09-16T04:23:41;11.50;;;7.47;;
35364;SDS011;21464;48.112;11.530;2022-09-16T04:26:08;8.35;;;7.30;;
35364;SDS011;21464;48.112;11.530;2022-09-16T04:28:34;7.60;;;6.80;;
35364;SDS011;21464;48.112;11.530;2022-09-16T04:31:03;6.95;;;6.25;;
35364;SDS011;21464;48.112;11.530;2022-09-16T04:33:30;8.40;;;6.60;;
35364;SDS011;21464;48.112;11.530;2022-09-16T04:38:28;7.32;;;6.63;;
35364;SDS011;21464;48.112;11.530;2022-09-16T04:40:58;8.27;;;7.32;;
35364;SDS011;21464;48.112;11.530;2022-09-16T04:43:24;8.32;;;7.53;;
35364;SDS011;21464;48.112;11.530;2022-09-16T04:45:50;8.02;;;7.10;;
35364;SDS011;21464;48.112;11.530;2022-09-16T04:48:16;9.57;;;7.00;;
35364;SDS011;21464;48.112;11.530;2022-09-16T04:50:42;7.57;;;6.88;;
35364;SDS011;21464;48.112;11.530;2022-09-16T04:53:08;8.25;;;7.45;;
35364;SDS011;21464;48.112;11.530;2022-09-16T04:55:34;8.50;;;7.55;;
35364;SDS011;21464;48.112;11.530;2022-09-16T04:58:00;8.20;;;7.15;;
35364;SDS011;21464;48.112;11.530;2022-09-16T05:00:26;8.43;;;7.60;;
35364;SDS011;21464;48.112;11.530;2022-09-16T05:02:52;8.13;;;7.32;;
35364;SDS011;21464;48.112;11.530;2022-09-16T05:05:19;8.65;;;7.82;;
35364;SDS011;21464;48.112;11.530;2022-09-16T05:07:45;10.30;;;6.93;;
35364;SDS011;21464;48.112;11.530;2022-09-16T05:10:11;8.27;;;7.32;;
35364;SDS011;21464;48.112;11.530;2022-09-16T05:12:37;8.20;;;7.40;;
35364;SDS011;21464;48.112;11.530;2022-09-16T05:15:03;8.60;;;7.70;;
35364;SDS011;21464;48.112;11.530;2022-09-16T05:17:29;9.60;;;8.23;;
35364;SDS011;21464;48.112;11.530;2022-09-16T05:19:56;10.35;;;8.25;;
35364;SDS011;21464;48.112;11.530;2022-09-16T05:22:22;9.55;;;8.55;;
35364;SDS011;21464;48.112;11.530;2022-09-16T05:24:48;8.82;;;7.93;;
35364;SDS011;21464;48.112;11.530;2022-09-16T05:27:14;9.60;;;8.63;;
35364;SDS011;21464;48.112;11.530;2022-09-16T05:29:40;10.27;;;9.00;;
35364;SDS011;21464;48.112;11.530;2022-09-16T05:32:06;9.75;;;8.73;;
35364;SDS011;21464;48.112;11.530;2022-09-16T05:34:32;9.48;;;8.50;;
35364;SDS011;21464;48.112;11.530;2022-09-16T05:37:00;11.20;;;8.77;;
35364;SDS011;21464;48.112;11.530;2022-09-16T05:39:26;10.65;;;9.00;;
35364;SDS011;21464;48.112;11.530;2022-09-16T05:41:56;9.77;;;8.80;;
35364;SDS011;21464;48.112;11.530;2022-09-16T05:44:22;10.70;;;8.70;;
35364;SDS011;21464;48.112;11.530;2022-09-16T05:46:48;9.25;;;8.32;;
35364;SDS011;21464;48.112;11.530;2022-09-16T05:49:14;11.80;;;8.73;;
35364;SDS011;21464;48.112;11.530;2022-09-16T05:51:45;11.32;;;9.05;;
35364;SDS011;21464;48.112;11.530;2022-09-16T05:54:11;10.27;;;9.18;;
35364;SDS011;21464;48.112;11.530;2022-09-16T05:56:37;12.02;;;9.07;;
35364;SDS011;21464;48.112;11.530;2022-09-16T05:59:03;9.80;;;8.93;;
35364;SDS011;21464;48.112;11.530;2022-09-16T06:01:33;9.75;;;8.80;;
35364;SDS011;21464;48.112;11.530;2022-09-16T06:04:00;10.85;;;9.73;;
35364;SDS011;21464;48.112;11.530;2022-09-16T06:08:53;11.95;;;10.10;;
35364;SDS011;21464;48.112;11.530;2022-09-16T06:11:19;10.63;;;9.35;;
35364;SDS011;21464;48.112;11.530;2022-09-16T06:13:45;9.73;;;8.82;;
35364;SDS011;21464;48.112;11.530;2022-09-16T06:16:11;10.70;;;9.00;;
35364;SDS011;21464;48.112;11.530;2022-09-16T06:18:39;12.90;;;9.48;;
35364;SDS011;21464;48.112;11.530;2022-09-16T06:21:07;12.38;;;9.40;;
35364;SDS011;21464;48.112;11.530;2022-09-16T06:23:34;9.48;;;8.57;;
35364;SDS011;21464;48.112;11.530;2022-09-16T06:26:04;10.13;;;8.85;;
35364;SDS011;21464;48.112;11.530;2022-09-16T06:28:30;10.57;;;9.48;;
35364;SDS011;21464;48.112;11.530;2022-09-16T06:31:02;11.77;;;10.57;;
35364;SDS011;21464;48.112;11.530;2022-09-16T06:33:28;12.10;;;10.65;;
35364;SDS011;21464;48.112;11.530;2022-09-16T06:35:54;12.68;;;9.75;;
35364;SDS011;21464;48.112;11.530;2022-09-16T06:38:22;10.80;;;9.70;;
35364;SDS011;21464;48.112;11.530;2022-09-16T06:40:48;12.02;;;9.57;;
35364;SDS011;21464;48.112;11.530;2022-09-16T06:43:15;11.05;;;9.38;;
35364;SDS011;21464;48.112;11.530;2022-09-16T06:45:41;9.68;;;8.73;;
35364;SDS011;21464;48.112;11.530;2022-09-16T06:48:07;12.15;;;10.85;;
35364;SDS011;21464;48.112;11.530;2022-09-16T06:50:33;11.38;;;10.18;;
35364;SDS011;21464;48.112;11.530;2022-09-16T06:52:59;16.27;;;12.00;;
35364;SDS011;21464;48.112;11.530;2022-09-16T06:55:24;11.32;;;9.52;;
35364;SDS011;21464;48.112;11.530;2022-09-16T06:57:50;12.70;;;10.43;;
35364;SDS011;21464;48.112;11.530;2022-09-16T07:00:16;10.93;;;9.55;;
35364;SDS011;21464;48.112;11.530;2022-09-16T07:02:42;17.60;;;12.05;;
35364;SDS011;21464;48.112;11.530;2022-09-16T07:05:08;11.55;;;10.35;;
35364;SDS011;21464;48.112;11.530;2022-09-16T07:07:34;12.38;;;9.77;;
35364;SDS011;21464;48.112;11.530;2022-09-16T07:10:01;11.38;;;10.02;;
35364;SDS011;21464;48.112;11.530;2022-09-16T07:12:27;13.73;;;11.40;;
35364;SDS011;21464;48.112;11.530;2022-09-16T07:14:53;11.90;;;10.48;;
35364;SDS011;21464;48.112;11.530;2022-09-16T07:17:19;12.18;;;10.43;;
35364;SDS011;21464;48.112;11.530;2022-09-16T07:19:48;12.43;;;10.45;;
35364;SDS011;21464;48.112;11.530;2022-09-16T07:22:14;13.38;;;10.85;;
35364;SDS011;21464;48.112;11.530;2022-09-16T07:24:40;13.00;;;10.88;;
35364;SDS011;21464;48.112;11.530;2022-09-16T07:27:06;11.07;;;9.88;;
35364;SDS011;21464;48.112;11.530;2022-09-16T07:29:32;11.93;;;10.18;;
35364;SDS011;21464;48.112;11.530;2022-09-16T07:31:57;12.82;;;11.00;;
35364;SDS011;21464;48.112;11.530;2022-09-16T07:34:24;11.75;;;10.55;;
35364;SDS011;21464;48.112;11.530;2022-09-16T07:36:50;12.57;;;10.30;;
35364;SDS011;21464;48.112;11.530;2022-09-16T07:39:17;11.68;;;10.18;;
35364;SDS011;21464;48.112;11.530;2022-09-16T07:41:44;12.10;;;10.55;;
35364;SDS011;21464;48.112;11.530;2022-09-16T07:44:11;11.68;;;10.32;;
35364;SDS011;21464;48.112;11.530;2022-09-16T07:46:37;14.85;;;10.48;;
35364;SDS011;21464;48.112;11.530;2022-09-16T07:49:06;11.35;;;10.15;;
35364;SDS011;21464;48.112;11.530;2022-09-16T07:51:32;13.35;;;10.55;;
35364;SDS011;21464;48.112;11.530;2022-09-16T07:54:00;12.52;;;10.90;;
35364;SDS011;21464;48.112;11.530;2022-09-16T07:56:29;18.65;;;13.05;;
35364;SDS011;21464;48.112;11.530;2022-09-16T07:58:55;13.85;;;11.10;;
35364;SDS011;21464;48.112;11.530;2022-09-16T08:01:21;11.10;;;9.90;;
35364;SDS011;21464;48.112;11.530;2022-09-16T08:03:47;16.88;;;14.80;;
35364;SDS011;21464;48.112;11.530;2022-09-16T08:06:15;13.82;;;11.25;;
35364;SDS011;21464;48.112;11.530;2022-09-16T08:08:41;17.65;;;13.95;;
35364;SDS011;21464;48.112;11.530;2022-09-16T08:11:07;14.43;;;11.07;;
35364;SDS011;21464;48.112;11.530;2022-09-16T08:13:34;15.00;;;11.43;;
35364;SDS011;21464;48.112;11.530;2022-09-16T08:16:02;10.57;;;9.43;;
35364;SDS011;21464;48.112;11.530;2022-09-16T08:18:28;9.70;;;8.70;;
35364;SDS011;21464;48.112;11.530;2022-09-16T08:20:55;11.20;;;10.00;;
35364;SDS011;21464;48.112;11.530;2022-09-16T08:23:21;13.30;;;9.85;;
35364;SDS011;21464;48.112;11.530;2022-09-16T08:25:55;11.23;;;10.13;;
35364;SDS011;21464;48.112;11.530;2022-09-16T08:28:21;12.75;;;9.77;;
35364;SDS011;21464;48.112;11.530;2022-09-16T08:30:46;11.20;;;9.80;;
35364;SDS011;21464;48.112;11.530;2022-09-16T08:33:12;10.93;;;9.80;;
35364;SDS011;21464;48.112;11.530;2022-09-16T08:35:38;12.23;;;9.73;;
35364;SDS011;21464;48.112;11.530;2022-09-16T08:38:04;12.07;;;9.73;;
35364;SDS011;21464;48.112;11.530;2022-09-16T08:40:32;11.80;;;9.60;;
35364;SDS011;21464;48.112;11.530;2022-09-16T08:45:41;10.63;;;9.52;;
35364;SDS011;21464;48.112;11.530;2022-09-16T08:50:52;11.30;;;9.55;;
35364;SDS011;21464;48.112;11.530;2022-09-16T08:55:54;10.45;;;9.30;;
35364;SDS011;21464;48.112;11.530;2022-09-16T08:58:24;13.18;;;11.30;;
35364;SDS011;21464;48.112;11.530;2022-09-16T09:00:56;15.00;;;9.98;;
35364;SDS011;21464;48.112;11.530;2022-09-16T09:05:55;10.63;;;9.55;;
35364;SDS011;21464;48.112;11.530;2022-09-16T09:11:01;13.20;;;10.88;;
35364;SDS011;21464;48.112;11.530;2022-09-16T09:13:32;10.45;;;9.27;;
35364;SDS011;21464;48.112;11.530;2022-09-16T09:26:30;10.65;;;9.55;;
35364;SDS011;21464;48.112;11.530;2022-09-16T09:29:17;10.50;;;9.27;;
35364;SDS011;21464;48.112;11.530;2022-09-16T09:42:27;11.88;;;10.02;;
35364;SDS011;21464;48.112;11.530;2022-09-16T09:47:24;12.30;;;10.18;;
35364;SDS011;21464;48.112;11.530;2022-09-16T09:49:54;13.43;;;10.07;;
35364;SDS011;21464;48.112;11.530;2022-09-16T09:52:25;10.63;;;9.52;;
35364;SDS011;21464;48.112;11.530;2022-09-16T09:54:53;13.30;;;10.43;;
35364;SDS011;21464;48.112;11.530;2022-09-16T09:59:51;12.73;;;10.40;;
35364;SDS011;21464;48.112;11.530;2022-09-16T10:02:19;11.57;;;10.38;;
35364;SDS011;21464;48.112;11.530;2022-09-16T10:04:46;14.93;;;11.10;;
35364;SDS011;21464;48.112;11.530;2022-09-16T10:07:12;13.15;;;10.05;;
35364;SDS011;21464;48.112;11.530;2022-09-16T10:09:46;12.95;;;10.70;;
35364;SDS011;21464;48.112;11.530;2022-09-16T10:12:13;12.27;;;10.23;;
35364;SDS011;21464;48.112;11.530;2022-09-16T10:14:39;12.18;;;10.85;;
35364;SDS011;21464;48.112;11.530;2022-09-16T10:17:13;11.77;;;10.45;;
35364;SDS011;21464;48.112;11.530;2022-09-16T10:19:49;11.88;;;9.70;;
35364;SDS011;21464;48.112;11.530;2022-09-16T10:22:21;12.05;;;10.60;;
35364;SDS011;21464;48.112;11.530;2022-09-16T10:24:52;13.65;;;11.25;;
35364;SDS011;21464;48.112;11.530;2022-09-16T10:27:20;13.43;;;10.63;;
35364;SDS011;21464;48.112;11.530;2022-09-16T10:29:47;13.18;;;11.73;;
35364;SDS011;21464;48.112;11.530;2022-09-16T10:32:15;18.33;;;15.50;;
35364;SDS011;21464;48.112;11.530;2022-09-16T10:34:42;13.18;;;11.75;;
35364;SDS011;21464;48.112;11.530;2022-09-16T10:39:37;14.90;;;12.15;;
35364;SDS011;21464;48.112;11.530;2022-09-16T10:42:04;13.20;;;11.90;;
35364;SDS011;21464;48.112;11.530;2022-09-16T10:44:40;14.27;;;12.77;;
35364;SDS011;21464;48.112;11.530;2022-09-16T10:47:15;12.63;;;11.30;;
35364;SDS011;21464;48.112;11.530;2022-09-16T10:49:46;12.18;;;10.32;;
35364;SDS011;21464;48.112;11.530;2022-09-16T10:52:17;10.35;;;8.93;;
35364;SDS011;21464;48.112;11.530;2022-09-16T10:54:45;11.07;;;9.95;;
35364;SDS011;21464;48.112;11.530;2022-09-16T10:59:59;10.65;;;9.65;;
35364;SDS011;21464;48.112;11.530;2022-09-16T11:02:37;13.32;;;9.30;;
35364;SDS011;21464;48.112;11.530;2022-09-16T11:18:31;6.72;;;6.10;;
35364;SDS011;21464;48.112;11.530;2022-09-16T11:26:33;7.35;;;6.50;;
35364;SDS011;21464;48.112;11.530;2022-09-16T11:42:00;9.07;;;6.40;;
35364;SDS011;21464;48.112;11.530;2022-09-16T11:44:40;7.43;;;6.72;;
35364;SDS011;21464;48.112;11.530;2022-09-16T11:47:32;9.60;;;8.70;;
35364;SDS011;21464;48.112;11.530;2022-09-16T11:50:05;6.38;;;5.78;;
35364;SDS011;21464;48.112;11.530;2022-09-16T11:52:42;7.22;;;6.22;;
35364;SDS011;21464;48.112;11.530;2022-09-16T11:57:36;8.98;;;7.82;;
35364;SDS011;21464;48.112;11.530;2022-09-16T12:00:05;13.02;;;8.85;;
35364;SDS011;21464;48.112;11.530;2022-09-16T12:05:24;14.45;;;10.13;;
35364;SDS011;21464;48.112;11.530;2022-09-16T12:08:05;16.60;;;11.00;;
35364;SDS011;21464;48.112;11.530;2022-09-16T12:10:37;14.18;;;10.68;;
35364;SDS011;21464;48.112;11.530;2022-09-16T12:13:09;12.55;;;9.75;;
35364;SDS011;21464;48.112;11.530;2022-09-16T12:15:39;11.27;;;9.93;;
35364;SDS011;21464;48.112;11.530;2022-09-16T12:18:20;11.02;;;8.68;;
35364;SDS011;21464;48.112;11.530;2022-09-16T12:20:50;11.55;;;8.77;;
35364;SDS011;21464;48.112;11.530;2022-09-16T12:25:51;11.77;;;9.18;;
35364;SDS011;21464;48.112;11.530;2022-09-16T12:28:28;8.55;;;7.38;;
35364;SDS011;21464;48.112;11.530;2022-09-16T12:31:02;8.75;;;7.22;;
35364;SDS011;21464;48.112;11.530;2022-09-16T12:33:33;6.53;;;5.93;;
35364;SDS011;21464;48.112;11.530;2022-09-16T12:36:04;6.82;;;6.07;;
35364;SDS011;21464;48.112;11.530;2022-09-16T12:38:31;6.88;;;6.03;;
35364;SDS011;21464;48.112;11.530;2022-09-16T12:43:46;9.68;;;6.20;;
35364;SDS011;21464;48.112;11.530;2022-09-16T12:49:06;9.13;;;7.28;;
35364;SDS011;21464;48.112;11.530;2022-09-16T12:51:40;8.73;;;7.25;;
35364;SDS011;21464;48.112;11.530;2022-09-16T12:57:02;10.40;;;8.25;;
35364;SDS011;21464;48.112;11.530;2022-09-16T13:02:01;8.60;;;6.77;;
35364;SDS011;21464;48.112;11.530;2022-09-16T13:07:24;6.50;;;5.90;;
35364;SDS011;21464;48.112;11.530;2022-09-16T13:10:29;4.97;;;4.57;;
35364;SDS011;21464;48.112;11.530;2022-09-16T13:12:50;5.50;;;5.03;;
35364;SDS011;21464;48.112;11.530;2022-09-16T13:15:21;5.78;;;5.18;;
35364;SDS011;21464;48.112;11.530;2022-09-16T13:17:48;5.88;;;5.32;;
35364;SDS011;21464;48.112;11.530;2022-09-16T13:20:27;6.25;;;5.65;;
35364;SDS011;21464;48.112;11.530;2022-09-16T13:23:12;5.80;;;5.30;;
35364;SDS011;21464;48.112;11.530;2022-09-16T13:25:47;5.45;;;4.90;;
35364;SDS011;21464;48.112;11.530;2022-09-16T13:33:38;4.90;;;4.40;;
35364;SDS011;21464;48.112;11.530;2022-09-16T13:41:12;3.72;;;3.33;;
35364;SDS011;21464;48.112;11.530;2022-09-16T13:46:11;3.77;;;3.30;;
35364;SDS011;21464;48.112;11.530;2022-09-16T13:48:44;3.60;;;3.30;;
35364;SDS011;21464;48.112;11.530;2022-09-16T13:51:13;3.42;;;3.13;;
35364;SDS011;21464;48.112;11.530;2022-09-16T13:53:47;5.03;;;3.53;;
35364;SDS011;21464;48.112;11.530;2022-09-16T13:58:55;3.65;;;3.35;;
35364;SDS011;21464;48.112;11.530;2022-09-16T14:01:32;2.90;;;2.70;;
35364;SDS011;21464;48.112;11.530;2022-09-16T14:14:16;3.50;;;3.20;;
35364;SDS011;21464;48.112;11.530;2022-09-16T14:16:43;4.27;;;3.40;;
35364;SDS011;21464;48.112;11.530;2022-09-16T14:21:45;4.13;;;3.65;;
35364;SDS011;21464;48.112;11.530;2022-09-16T14:24:20;4.45;;;4.05;;
35364;SDS011;21464;48.112;11.530;2022-09-16T14:26:50;4.60;;;4.05;;
35364;SDS011;21464;48.112;11.530;2022-09-16T14:29:19;4.00;;;3.70;;
35364;SDS011;21464;48.112;11.530;2022-09-16T14:31:45;3.65;;;3.35;;
35364;SDS011;21464;48.112;11.530;2022-09-16T14:34:14;4.72;;;3.35;;
35364;SDS011;21464;48.112;11.530;2022-09-16T14:36:41;5.03;;;4.53;;
35364;SDS011;21464;48.112;11.530;2022-09-16T14:39:15;6.22;;;4.60;;
35364;SDS011;21464;48.112;11.530;2022-09-16T14:41:44;5.72;;;5.00;;
35364;SDS011;21464;48.112;11.530;2022-09-16T14:46:39;4.93;;;3.57;;
35364;SDS011;21464;48.112;11.530;2022-09-16T14:49:07;4.72;;;4.20;;
35364;SDS011;21464;48.112;11.530;2022-09-16T14:51:34;4.13;;;3.77;;
35364;SDS011;21464;48.112;11.530;2022-09-16T14:54:01;5.10;;;4.35;;
35364;SDS011;21464;48.112;11.530;2022-09-16T14:56:27;6.10;;;4.60;;
35364;SDS011;21464;48.112;11.530;2022-09-16T14:58:53;5.43;;;4.30;;
35364;SDS011;21464;48.112;11.530;2022-09-16T15:01:25;3.83;;;3.53;;
35364;SDS011;21464;48.112;11.530;2022-09-16T15:04:05;3.63;;;3.37;;
35364;SDS011;21464;48.112;11.530;2022-09-16T15:06:34;5.03;;;4.20;;
35364;SDS011;21464;48.112;11.530;2022-09-16T15:09:05;4.05;;;3.65;;
35364;SDS011;21464;48.112;11.530;2022-09-16T15:11:43;4.03;;;3.47;;
35364;SDS011;21464;48.112;11.530;2022-09-16T15:14:10;5.38;;;4.38;;
35364;SDS011;21464;48.112;11.530;2022-09-16T15:16:44;5.70;;;4.10;;
35364;SDS011;21464;48.112;11.530;2022-09-16T15:19:14;4.32;;;3.90;;
35364;SDS011;21464;48.112;11.530;2022-09-16T15:21:41;4.18;;;3.80;;
35364;SDS011;21464;48.112;11.530;2022-09-16T15:24:14;5.47;;;4.70;;
35364;SDS011;21464;48.112;11.530;2022-09-16T15:26:42;5.03;;;4.50;;
35364;SDS011;21464;48.112;11.530;2022-09-16T15:31:43;4.50;;;4.20;;
35364;SDS011;21464;48.112;11.530;2022-09-16T15:36:52;4.20;;;3.80;;
35364;SDS011;21464;48.112;11.530;2022-09-16T15:39:31;4.68;;;4.20;;
35364;SDS011;21464;48.112;11.530;2022-09-16T15:42:02;4.47;;;4.15;;
35364;SDS011;21464;48.112;11.530;2022-09-16T15:44:31;4.53;;;4.13;;
35364;SDS011;21464;48.112;11.530;2022-09-16T15:46:58;4.30;;;3.90;;
35364;SDS011;21464;48.112;11.530;2022-09-16T15:49:24;4.77;;;4.37;;
35364;SDS011;21464;48.112;11.530;2022-09-16T15:51:52;4.57;;;4.03;;
35364;SDS011;21464;48.112;11.530;2022-09-16T15:54:29;4.73;;;4.27;;
35364;SDS011;21464;48.112;11.530;2022-09-16T15:59:30;5.30;;;4.60;;
35364;SDS011;21464;48.112;11.530;2022-09-16T16:01:57;6.03;;;4.50;;
35364;SDS011;21464;48.112;11.530;2022-09-16T16:04:27;5.35;;;4.50;;
35364;SDS011;21464;48.112;11.530;2022-09-16T16:11:52;5.13;;;4.68;;
35364;SDS011;21464;48.112;11.530;2022-09-16T16:14:18;5.32;;;4.82;;
35364;SDS011;21464;48.112;11.530;2022-09-16T16:16:44;5.05;;;4.47;;
35364;SDS011;21464;48.112;11.530;2022-09-16T16:19:10;4.70;;;4.40;;
35364;SDS011;21464;48.112;11.530;2022-09-16T16:21:39;5.13;;;4.60;;
35364;SDS011;21464;48.112;11.530;2022-09-16T16:24:08;5.45;;;4.80;;
35364;SDS011;21464;48.112;11.530;2022-09-16T16:26:34;4.93;;;4.47;;
35364;SDS011;21464;48.112;11.530;2022-09-16T16:29:00;5.27;;;4.73;;
35364;SDS011;21464;48.112;11.530;2022-09-16T16:31:26;7.90;;;4.93;;
35364;SDS011;21464;48.112;11.530;2022-09-16T16:33:52;5.27;;;4.70;;
35364;SDS011;21464;48.112;11.530;2022-09-16T16:36:18;5.30;;;4.60;;
35364;SDS011;21464;48.112;11.530;2022-09-16T16:38:46;5.03;;;4.60;;
35364;SDS011;21464;48.112;11.530;2022-09-16T16:41:23;5.25;;;4.75;;
35364;SDS011;21464;48.112;11.530;2022-09-16T16:43:49;7.53;;;5.50;;
35364;SDS011;21464;48.112;11.530;2022-09-16T16:46:16;5.20;;;4.80;;
35364;SDS011;21464;48.112;11.530;2022-09-16T16:48:42;5.38;;;4.88;;
35364;SDS011;21464;48.112;11.530;2022-09-16T16:51:11;6.47;;;5.00;;
35364;SDS011;21464;48.112;11.530;2022-09-16T16:53:37;6.65;;;5.13;;
35364;SDS011;21464;48.112;11.530;2022-09-16T16:56:05;6.88;;;4.90;;
35364;SDS011;21464;48.112;11.530;2022-09-16T16:58:31;6.85;;;4.72;;
35364;SDS011;21464;48.112;11.530;2022-09-16T17:01:10;5.82;;;5.25;;
35364;SDS011;21464;48.112;11.530;2022-09-16T17:03:39;6.38;;;5.70;;
35364;SDS011;21464;48.112;11.530;2022-09-16T17:06:06;5.80;;;4.97;;
35364;SDS011;21464;48.112;11.530;2022-09-16T17:08:32;5.80;;;5.25;;
35364;SDS011;21464;48.112;11.530;2022-09-16T17:11:12;5.43;;;4.93;;
35364;SDS011;21464;48.112;11.530;2022-09-16T17:13:39;5.95;;;5.40;;
35364;SDS011;21464;48.112;11.530;2022-09-16T17:16:05;6.57;;;5.70;;
35364;SDS011;21464;48.112;11.530;2022-09-16T17:18:32;6.43;;;5.80;;
35364;SDS011;21464;48.112;11.530;2022-09-16T17:21:05;7.35;;;5.43;;
35364;SDS011;21464;48.112;11.530;2022-09-16T17:23:31;5.53;;;4.93;;
35364;SDS011;21464;48.112;11.530;2022-09-16T17:25:58;6.38;;;5.78;;
35364;SDS011;21464;48.112;11.530;2022-09-16T17:28:23;5.40;;;4.90;;
35364;SDS011;21464;48.112;11.530;2022-09-16T17:30:49;6.15;;;5.55;;
35364;SDS011;21464;48.112;11.530;2022-09-16T17:33:15;6.65;;;6.00;;
35364;SDS011;21464;48.112;11.530;2022-09-16T17:35:41;6.28;;;5.68;;
35364;SDS011;21464;48.112;11.530;2022-09-16T17:38:07;5.95;;;5.35;;
35364;SDS011;21464;48.112;11.530;2022-09-16T17:40:34;5.65;;;5.18;;
35364;SDS011;21464;48.112;11.530;2022-09-16T17:42:59;5.80;;;5.30;;
35364;SDS011;21464;48.112;11.530;2022-09-16T17:45:25;5.47;;;4.97;;
35364;SDS011;21464;48.112;11.530;2022-09-16T17:47:51;6.97;;;5.55;;
35364;SDS011;21464;48.112;11.530;2022-09-16T17:50:17;6.15;;;5.65;;
35364;SDS011;21464;48.112;11.530;2022-09-16T17:52:43;6.17;;;5.57;;
35364;SDS011;21464;48.112;11.530;2022-09-16T17:55:10;6.25;;;5.75;;